sensor_id;sensor_type;location;lat;lon;timestamp;temperature;humidity
45096;DHT22;30858;51.108;8.068;2023-05-20T00:00:06;8.10;99.90
45096;DHT22;30858;51.108;8.068;2023-05-20T00:02:32;8.00;99.90
45096;DHT22;30858;51.108;8.068;2023-05-20T00:04:57;8.00;99.90
45096;DHT22;30858;51.108;8.068;2023-05-20T00:07:23;7.90;99.90
45096;DHT22;30858;51.108;8.068;2023-05-20T00:09:48;7.90;99.90
45096;DHT22;30858;51.108;8.068;2023-05-20T00:12:14;7.90;99.90
45096;DHT22;30858;51.108;8.068;2023-05-20T00:14:39;7.80;99.90
45096;DHT22;30858;51.108;8.068;2023-05-20T00:17:05;7.80;99.90
45096;DHT22;30858;51.108;8.068;2023-05-20T00:19:30;7.80;99.90
45096;DHT22;30858;51.108;8.068;2023-05-20T00:21:56;7.70;99.90
45096;DHT22;30858;51.108;8.068;2023-05-20T00:24:23;7.70;99.90
45096;DHT22;30858;51.108;8.068;2023-05-20T00:26:48;7.70;99.90
45096;DHT22;30858;51.108;8.068;2023-05-20T00:29:14;7.60;99.90
45096;DHT22;30858;51.108;8.068;2023-05-20T00:31:39;7.60;99.90
45096;DHT22;30858;51.108;8.068;2023-05-20T00:34:06;7.50;99.90
45096;DHT22;30858;51.108;8.068;2023-05-20T00:36:32;7.50;99.90
45096;DHT22;30858;51.108;8.068;2023-05-20T00:38:57;7.50;99.90
45096;DHT22;30858;51.108;8.068;2023-05-20T00:41:23;7.40;99.90
45096;DHT22;30858;51.108;8.068;2023-05-20T00:43:52;7.40;99.90
45096;DHT22;30858;51.108;8.068;2023-05-20T00:46:19;7.40;99.90
45096;DHT22;30858;51.108;8.068;2023-05-20T00:48:44;7.40;99.90
45096;DHT22;30858;51.108;8.068;2023-05-20T00:51:13;7.30;99.90
45096;DHT22;30858;51.108;8.068;2023-05-20T00:53:39;7.20;99.90
45096;DHT22;30858;51.108;8.068;2023-05-20T00:56:07;7.20;99.90
45096;DHT22;30858;51.108;8.068;2023-05-20T00:58:34;7.20;99.90
45096;DHT22;30858;51.108;8.068;2023-05-20T01:01:01;7.10;99.90
45096;DHT22;30858;51.108;8.068;2023-05-20T01:03:28;7.20;99.90
45096;DHT22;30858;51.108;8.068;2023-05-20T01:05:53;7.10;99.90
45096;DHT22;30858;51.108;8.068;2023-05-20T01:08:20;7.10;99.90
45096;DHT22;30858;51.108;8.068;2023-05-20T01:10:50;7.10;99.90
45096;DHT22;30858;51.108;8.068;2023-05-20T01:13:20;7.10;99.90
45096;DHT22;30858;51.108;8.068;2023-05-20T01:15:48;7.10;99.90
45096;DHT22;30858;51.108;8.068;2023-05-20T01:18:15;7.10;99.90
45096;DHT22;30858;51.108;8.068;2023-05-20T01:20:43;7.10;99.90
45096;DHT22;30858;51.108;8.068;2023-05-20T01:23:10;7.00;99.90
45096;DHT22;30858;51.108;8.068;2023-05-20T01:25:36;7.00;99.90
45096;DHT22;30858;51.108;8.068;2023-05-20T01:28:01;7.00;99.90
45096;DHT22;30858;51.108;8.068;2023-05-20T01:30:31;6.90;99.90
45096;DHT22;30858;51.108;8.068;2023-05-20T01:33:01;6.80;99.90
45096;DHT22;30858;51.108;8.068;2023-05-20T01:35:29;6.80;99.90
45096;DHT22;30858;51.108;8.068;2023-05-20T01:37:55;6.80;99.90
45096;DHT22;30858;51.108;8.068;2023-05-20T01:40:22;6.80;99.90
45096;DHT22;30858;51.108;8.068;2023-05-20T01:42:49;6.80;99.90
45096;DHT22;30858;51.108;8.068;2023-05-20T01:45:18;6.70;99.90
45096;DHT22;30858;51.108;8.068;2023-05-20T01:47:46;6.80;99.90
45096;DHT22;30858;51.108;8.068;2023-05-20T01:50:12;6.80;99.90
45096;DHT22;30858;51.108;8.068;2023-05-20T01:52:37;6.80;99.90
45096;DHT22;30858;51.108;8.068;2023-05-20T01:55:03;6.80;99.90
45096;DHT22;30858;51.108;8.068;2023-05-20T01:57:29;6.80;99.90
45096;DHT22;30858;51.108;8.068;2023-05-20T01:59:54;6.70;99.90
45096;DHT22;30858;51.108;8.068;2023-05-20T02:02:20;6.70;99.90
45096;DHT22;30858;51.108;8.068;2023-05-20T02:04:47;6.70;99.90
45096;DHT22;30858;51.108;8.068;2023-05-20T02:07:16;6.60;99.90
45096;DHT22;30858;51.108;8.068;2023-05-20T02:09:43;6.60;99.90
45096;DHT22;30858;51.108;8.068;2023-05-20T02:12:09;6.50;99.90
45096;DHT22;30858;51.108;8.068;2023-05-20T02:14:41;6.50;99.90
45096;DHT22;30858;51.108;8.068;2023-05-20T02:17:06;6.50;99.90
45096;DHT22;30858;51.108;8.068;2023-05-20T02:19:32;6.50;99.90
45096;DHT22;30858;51.108;8.068;2023-05-20T02:21:57;6.50;99.90
45096;DHT22;30858;51.108;8.068;2023-05-20T02:24:23;6.50;99.90
45096;DHT22;30858;51.108;8.068;2023-05-20T02:26:48;6.50;99.90
45096;DHT22;30858;51.108;8.068;2023-05-20T02:29:15;6.50;99.90
45096;DHT22;30858;51.108;8.068;2023-05-20T02:31:41;6.40;99.90
45096;DHT22;30858;51.108;8.068;2023-05-20T02:34:07;6.40;99.90
45096;DHT22;30858;51.108;8.068;2023-05-20T02:36:32;6.40;99.90
45096;DHT22;30858;51.108;8.068;2023-05-20T02:38:58;6.30;99.90
45096;DHT22;30858;51.108;8.068;2023-05-20T02:41:25;6.30;99.90
45096;DHT22;30858;51.108;8.068;2023-05-20T02:43:51;6.30;99.90
45096;DHT22;30858;51.108;8.068;2023-05-20T02:46:16;6.20;99.90
45096;DHT22;30858;51.108;8.068;2023-05-20T02:48:44;6.20;99.90
45096;DHT22;30858;51.108;8.068;2023-05-20T02:51:09;6.20;99.90
45096;DHT22;30858;51.108;8.068;2023-05-20T02:53:35;6.10;99.90
45096;DHT22;30858;51.108;8.068;2023-05-20T02:56:02;6.10;99.90
45096;DHT22;30858;51.108;8.068;2023-05-20T02:58:28;6.10;99.90
45096;DHT22;30858;51.108;8.068;2023-05-20T03:00:54;6.10;99.90
45096;DHT22;30858;51.108;8.068;2023-05-20T03:03:22;6.10;99.90
45096;DHT22;30858;51.108;8.068;2023-05-20T03:05:48;6.10;99.90
45096;DHT22;30858;51.108;8.068;2023-05-20T03:08:14;6.10;99.90
45096;DHT22;30858;51.108;8.068;2023-05-20T03:10:39;6.00;99.90
45096;DHT22;30858;51.108;8.068;2023-05-20T03:13:06;6.00;99.90
45096;DHT22;30858;51.108;8.068;2023-05-20T03:15:34;6.00;99.90
45096;DHT22;30858;51.108;8.068;2023-05-20T03:18:00;6.00;99.90
45096;DHT22;30858;51.108;8.068;2023-05-20T03:20:25;6.00;99.90
45096;DHT22;30858;51.108;8.068;2023-05-20T03:22:53;6.00;99.90
45096;DHT22;30858;51.108;8.068;2023-05-20T03:25:19;6.00;99.90
45096;DHT22;30858;51.108;8.068;2023-05-20T03:27:45;6.00;99.90
45096;DHT22;30858;51.108;8.068;2023-05-20T03:30:11;6.00;99.90
45096;DHT22;30858;51.108;8.068;2023-05-20T03:32:36;6.10;99.90
45096;DHT22;30858;51.108;8.068;2023-05-20T03:35:02;6.10;99.90
45096;DHT22;30858;51.108;8.068;2023-05-20T03:37:28;6.10;99.90
45096;DHT22;30858;51.108;8.068;2023-05-20T03:39:53;6.10;99.90
45096;DHT22;30858;51.108;8.068;2023-05-20T03:42:19;6.10;99.90
45096;DHT22;30858;51.108;8.068;2023-05-20T03:44:44;6.10;99.90
45096;DHT22;30858;51.108;8.068;2023-05-20T03:47:10;6.10;99.90
45096;DHT22;30858;51.108;8.068;2023-05-20T03:49:35;6.20;99.90
45096;DHT22;30858;51.108;8.068;2023-05-20T03:52:01;6.20;99.90
45096;DHT22;30858;51.108;8.068;2023-05-20T03:54:28;6.30;99.90
45096;DHT22;30858;51.108;8.068;2023-05-20T03:56:55;6.30;99.90
45096;DHT22;30858;51.108;8.068;2023-05-20T03:59:21;6.40;99.90
45096;DHT22;30858;51.108;8.068;2023-05-20T04:01:47;6.40;99.90
45096;DHT22;30858;51.108;8.068;2023-05-20T04:04:12;6.50;99.90
45096;DHT22;30858;51.108;8.068;2023-05-20T04:06:38;6.60;99.90
45096;DHT22;30858;51.108;8.068;2023-05-20T04:09:04;6.60;99.90
45096;DHT22;30858;51.108;8.068;2023-05-20T04:11:30;6.70;99.90
45096;DHT22;30858;51.108;8.068;2023-05-20T04:13:56;6.70;99.90
45096;DHT22;30858;51.108;8.068;2023-05-20T04:16:22;6.70;99.90
45096;DHT22;30858;51.108;8.068;2023-05-20T04:18:48;6.70;99.90
45096;DHT22;30858;51.108;8.068;2023-05-20T04:21:14;6.80;99.90
45096;DHT22;30858;51.108;8.068;2023-05-20T04:23:40;6.80;99.90
45096;DHT22;30858;51.108;8.068;2023-05-20T04:26:06;6.80;99.90
45096;DHT22;30858;51.108;8.068;2023-05-20T04:28:31;6.90;99.90
45096;DHT22;30858;51.108;8.068;2023-05-20T04:30:58;6.90;99.90
45096;DHT22;30858;51.108;8.068;2023-05-20T04:33:25;7.00;99.90
45096;DHT22;30858;51.108;8.068;2023-05-20T04:35:51;7.10;99.90
45096;DHT22;30858;51.108;8.068;2023-05-20T04:38:16;7.10;99.90
45096;DHT22;30858;51.108;8.068;2023-05-20T04:40:42;7.20;99.90
45096;DHT22;30858;51.108;8.068;2023-05-20T04:43:07;7.30;99.90
45096;DHT22;30858;51.108;8.068;2023-05-20T04:45:33;7.40;99.90
45096;DHT22;30858;51.108;8.068;2023-05-20T04:48:00;7.50;99.90
45096;DHT22;30858;51.108;8.068;2023-05-20T04:50:25;7.60;99.90
45096;DHT22;30858;51.108;8.068;2023-05-20T04:52:51;7.60;99.90
45096;DHT22;30858;51.108;8.068;2023-05-20T04:55:16;7.70;99.90
45096;DHT22;30858;51.108;8.068;2023-05-20T04:57:43;7.70;99.90
45096;DHT22;30858;51.108;8.068;2023-05-20T05:00:10;7.80;99.90
45096;DHT22;30858;51.108;8.068;2023-05-20T05:02:37;7.80;99.90
45096;DHT22;30858;51.108;8.068;2023-05-20T05:05:02;7.90;99.90
45096;DHT22;30858;51.108;8.068;2023-05-20T05:07:28;8.00;99.90
45096;DHT22;30858;51.108;8.068;2023-05-20T05:09:53;8.20;99.90
45096;DHT22;30858;51.108;8.068;2023-05-20T05:12:19;8.10;99.90
45096;DHT22;30858;51.108;8.068;2023-05-20T05:14:45;8.20;99.90
45096;DHT22;30858;51.108;8.068;2023-05-20T05:17:10;8.30;99.90
45096;DHT22;30858;51.108;8.068;2023-05-20T05:19:36;8.40;99.90
45096;DHT22;30858;51.108;8.068;2023-05-20T05:22:01;8.40;99.90
45096;DHT22;30858;51.108;8.068;2023-05-20T05:24:27;8.50;99.90
45096;DHT22;30858;51.108;8.068;2023-05-20T05:26:53;8.60;99.90
45096;DHT22;30858;51.108;8.068;2023-05-20T05:29:19;8.70;99.90
45096;DHT22;30858;51.108;8.068;2023-05-20T05:31:45;8.90;99.90
45096;DHT22;30858;51.108;8.068;2023-05-20T05:34:10;9.00;99.90
45096;DHT22;30858;51.108;8.068;2023-05-20T05:36:38;9.10;99.90
45096;DHT22;30858;51.108;8.068;2023-05-20T05:39:04;9.10;99.90
45096;DHT22;30858;51.108;8.068;2023-05-20T05:41:30;9.20;99.90
45096;DHT22;30858;51.108;8.068;2023-05-20T05:43:57;9.30;99.90
45096;DHT22;30858;51.108;8.068;2023-05-20T05:46:23;9.40;99.90
45096;DHT22;30858;51.108;8.068;2023-05-20T05:48:48;9.50;99.90
45096;DHT22;30858;51.108;8.068;2023-05-20T05:51:15;9.60;99.90
45096;DHT22;30858;51.108;8.068;2023-05-20T05:53:40;9.60;99.90
45096;DHT22;30858;51.108;8.068;2023-05-20T05:56:06;9.70;99.90
45096;DHT22;30858;51.108;8.068;2023-05-20T05:58:32;9.80;99.90
45096;DHT22;30858;51.108;8.068;2023-05-20T06:00:58;9.90;99.90
45096;DHT22;30858;51.108;8.068;2023-05-20T06:03:23;9.90;99.90
45096;DHT22;30858;51.108;8.068;2023-05-20T06:05:49;10.00;99.90
45096;DHT22;30858;51.108;8.068;2023-05-20T06:08:15;10.10;99.90
45096;DHT22;30858;51.108;8.068;2023-05-20T06:10:40;10.20;99.90
45096;DHT22;30858;51.108;8.068;2023-05-20T06:13:06;10.30;99.90
45096;DHT22;30858;51.108;8.068;2023-05-20T06:15:32;10.50;99.90
45096;DHT22;30858;51.108;8.068;2023-05-20T06:17:57;10.60;99.90
45096;DHT22;30858;51.108;8.068;2023-05-20T06:20:23;10.70;99.90
45096;DHT22;30858;51.108;8.068;2023-05-20T06:22:48;10.90;99.90
45096;DHT22;30858;51.108;8.068;2023-05-20T06:25:14;10.90;99.90
45096;DHT22;30858;51.108;8.068;2023-05-20T06:27:39;11.20;99.90
45096;DHT22;30858;51.108;8.068;2023-05-20T06:30:05;11.30;99.90
45096;DHT22;30858;51.108;8.068;2023-05-20T06:32:31;11.50;99.90
45096;DHT22;30858;51.108;8.068;2023-05-20T06:34:57;11.70;99.90
45096;DHT22;30858;51.108;8.068;2023-05-20T06:37:22;11.80;99.90
45096;DHT22;30858;51.108;8.068;2023-05-20T06:39:49;12.00;99.90
45096;DHT22;30858;51.108;8.068;2023-05-20T06:42:18;12.10;99.90
45096;DHT22;30858;51.108;8.068;2023-05-20T06:44:45;12.40;99.90
45096;DHT22;30858;51.108;8.068;2023-05-20T06:47:13;12.50;99.90
45096;DHT22;30858;51.108;8.068;2023-05-20T06:49:41;12.60;99.90
45096;DHT22;30858;51.108;8.068;2023-05-20T06:52:06;12.70;99.90
45096;DHT22;30858;51.108;8.068;2023-05-20T06:54:32;12.80;99.90
45096;DHT22;30858;51.108;8.068;2023-05-20T06:57:01;12.90;99.90
45096;DHT22;30858;51.108;8.068;2023-05-20T06:59:26;12.90;99.90
45096;DHT22;30858;51.108;8.068;2023-05-20T07:01:52;13.00;99.90
45096;DHT22;30858;51.108;8.068;2023-05-20T07:04:17;13.10;99.90
45096;DHT22;30858;51.108;8.068;2023-05-20T07:06:43;13.10;99.90
45096;DHT22;30858;51.108;8.068;2023-05-20T07:09:09;13.20;99.90
45096;DHT22;30858;51.108;8.068;2023-05-20T07:11:34;13.20;99.90
45096;DHT22;30858;51.108;8.068;2023-05-20T07:14:00;13.30;99.90
45096;DHT22;30858;51.108;8.068;2023-05-20T07:16:25;13.30;99.90
45096;DHT22;30858;51.108;8.068;2023-05-20T07:18:51;13.40;99.90
45096;DHT22;30858;51.108;8.068;2023-05-20T07:21:16;13.40;99.90
45096;DHT22;30858;51.108;8.068;2023-05-20T07:23:42;13.30;99.90
45096;DHT22;30858;51.108;8.068;2023-05-20T07:26:08;13.40;99.90
45096;DHT22;30858;51.108;8.068;2023-05-20T07:28:33;13.30;99.90
45096;DHT22;30858;51.108;8.068;2023-05-20T07:30:59;13.50;99.90
45096;DHT22;30858;51.108;8.068;2023-05-20T07:33:25;13.50;99.90
45096;DHT22;30858;51.108;8.068;2023-05-20T07:35:51;13.50;99.90
45096;DHT22;30858;51.108;8.068;2023-05-20T07:38:18;13.50;99.90
45096;DHT22;30858;51.108;8.068;2023-05-20T07:40:44;13.60;99.90
45096;DHT22;30858;51.108;8.068;2023-05-20T07:43:09;13.70;99.90
45096;DHT22;30858;51.108;8.068;2023-05-20T07:45:35;13.80;99.90
45096;DHT22;30858;51.108;8.068;2023-05-20T07:48:04;13.90;99.90
45096;DHT22;30858;51.108;8.068;2023-05-20T07:50:30;14.10;99.90
45096;DHT22;30858;51.108;8.068;2023-05-20T07:52:55;14.10;99.90
45096;DHT22;30858;51.108;8.068;2023-05-20T07:55:21;14.20;99.90
45096;DHT22;30858;51.108;8.068;2023-05-20T07:57:47;14.20;99.90
45096;DHT22;30858;51.108;8.068;2023-05-20T08:00:12;14.20;99.90
45096;DHT22;30858;51.108;8.068;2023-05-20T08:02:38;14.20;99.90
45096;DHT22;30858;51.108;8.068;2023-05-20T08:05:04;14.30;99.90
45096;DHT22;30858;51.108;8.068;2023-05-20T08:07:30;14.40;99.90
45096;DHT22;30858;51.108;8.068;2023-05-20T08:09:56;14.20;99.90
45096;DHT22;30858;51.108;8.068;2023-05-20T08:12:22;14.20;99.90
45096;DHT22;30858;51.108;8.068;2023-05-20T08:14:47;14.30;99.90
45096;DHT22;30858;51.108;8.068;2023-05-20T08:17:13;14.30;99.90
45096;DHT22;30858;51.108;8.068;2023-05-20T08:19:38;14.20;99.90
45096;DHT22;30858;51.108;8.068;2023-05-20T08:22:04;14.20;99.90
45096;DHT22;30858;51.108;8.068;2023-05-20T08:24:30;14.40;99.90
45096;DHT22;30858;51.108;8.068;2023-05-20T08:26:56;14.50;99.90
45096;DHT22;30858;51.108;8.068;2023-05-20T08:29:21;14.70;99.90
45096;DHT22;30858;51.108;8.068;2023-05-20T08:31:47;14.70;99.90
45096;DHT22;30858;51.108;8.068;2023-05-20T08:34:12;14.80;99.90
45096;DHT22;30858;51.108;8.068;2023-05-20T08:36:38;14.80;99.90
45096;DHT22;30858;51.108;8.068;2023-05-20T08:39:04;15.10;99.90
45096;DHT22;30858;51.108;8.068;2023-05-20T08:41:30;15.20;99.90
45096;DHT22;30858;51.108;8.068;2023-05-20T08:43:56;15.30;99.90
45096;DHT22;30858;51.108;8.068;2023-05-20T08:46:23;15.30;99.90
45096;DHT22;30858;51.108;8.068;2023-05-20T08:48:50;15.40;99.90
45096;DHT22;30858;51.108;8.068;2023-05-20T08:51:17;15.70;99.90
45096;DHT22;30858;51.108;8.068;2023-05-20T08:53:45;15.80;99.90
45096;DHT22;30858;51.108;8.068;2023-05-20T08:56:12;15.80;99.90
45096;DHT22;30858;51.108;8.068;2023-05-20T08:58:37;16.00;99.90
45096;DHT22;30858;51.108;8.068;2023-05-20T09:01:03;16.20;99.90
45096;DHT22;30858;51.108;8.068;2023-05-20T09:03:30;16.30;99.90
45096;DHT22;30858;51.108;8.068;2023-05-20T09:06:06;16.40;99.90
45096;DHT22;30858;51.108;8.068;2023-05-20T09:08:32;16.40;99.90
45096;DHT22;30858;51.108;8.068;2023-05-20T09:10:58;16.40;99.90
45096;DHT22;30858;51.108;8.068;2023-05-20T09:13:25;16.20;99.90
45096;DHT22;30858;51.108;8.068;2023-05-20T09:15:51;15.90;99.90
45096;DHT22;30858;51.108;8.068;2023-05-20T09:18:16;16.00;99.90
45096;DHT22;30858;51.108;8.068;2023-05-20T09:20:46;16.20;99.90
45096;DHT22;30858;51.108;8.068;2023-05-20T09:23:11;16.50;99.90
45096;DHT22;30858;51.108;8.068;2023-05-20T09:25:37;16.90;99.90
45096;DHT22;30858;51.108;8.068;2023-05-20T09:28:07;17.00;99.90
45096;DHT22;30858;51.108;8.068;2023-05-20T09:30:33;17.10;99.90
45096;DHT22;30858;51.108;8.068;2023-05-20T09:33:00;17.20;99.90
45096;DHT22;30858;51.108;8.068;2023-05-20T09:35:26;17.30;99.90
45096;DHT22;30858;51.108;8.068;2023-05-20T09:37:53;17.30;99.90
45096;DHT22;30858;51.108;8.068;2023-05-20T09:40:27;17.40;99.90
45096;DHT22;30858;51.108;8.068;2023-05-20T09:42:56;17.30;99.90
45096;DHT22;30858;51.108;8.068;2023-05-20T09:45:24;17.30;99.90
45096;DHT22;30858;51.108;8.068;2023-05-20T09:47:50;17.40;99.90
45096;DHT22;30858;51.108;8.068;2023-05-20T09:50:18;17.10;99.90
45096;DHT22;30858;51.108;8.068;2023-05-20T09:52:46;16.90;99.90
45096;DHT22;30858;51.108;8.068;2023-05-20T09:55:13;16.60;99.90
45096;DHT22;30858;51.108;8.068;2023-05-20T09:57:39;16.70;99.90
45096;DHT22;30858;51.108;8.068;2023-05-20T10:00:05;16.90;99.90
45096;DHT22;30858;51.108;8.068;2023-05-20T10:02:33;16.80;99.90
45096;DHT22;30858;51.108;8.068;2023-05-20T10:05:03;16.90;99.90
45096;DHT22;30858;51.108;8.068;2023-05-20T10:16:47;16.50;99.90
45096;DHT22;30858;51.108;8.068;2023-05-20T10:19:26;16.20;99.90
45096;DHT22;30858;51.108;8.068;2023-05-20T10:26:57;16.30;99.90
45096;DHT22;30858;51.108;8.068;2023-05-20T10:29:23;16.40;99.90
45096;DHT22;30858;51.108;8.068;2023-05-20T10:31:50;16.40;99.90
45096;DHT22;30858;51.108;8.068;2023-05-20T10:34:18;16.20;99.90
45096;DHT22;30858;51.108;8.068;2023-05-20T10:36:57;16.10;99.90
45096;DHT22;30858;51.108;8.068;2023-05-20T10:39:31;16.30;99.90
45096;DHT22;30858;51.108;8.068;2023-05-20T10:42:09;16.20;99.90
45096;DHT22;30858;51.108;8.068;2023-05-20T10:44:45;16.40;99.90
45096;DHT22;30858;51.108;8.068;2023-05-20T10:47:12;16.20;99.90
45096;DHT22;30858;51.108;8.068;2023-05-20T10:49:44;16.40;99.90
45096;DHT22;30858;51.108;8.068;2023-05-20T10:52:13;16.50;99.90
45096;DHT22;30858;51.108;8.068;2023-05-20T10:55:05;16.70;99.90
45096;DHT22;30858;51.108;8.068;2023-05-20T10:57:33;16.60;99.90
45096;DHT22;30858;51.108;8.068;2023-05-20T10:59:58;16.80;99.90
45096;DHT22;30858;51.108;8.068;2023-05-20T11:02:26;16.90;99.90
45096;DHT22;30858;51.108;8.068;2023-05-20T11:04:54;16.80;99.90
45096;DHT22;30858;51.108;8.068;2023-05-20T11:07:27;17.00;99.90
45096;DHT22;30858;51.108;8.068;2023-05-20T11:09:55;17.30;99.90
45096;DHT22;30858;51.108;8.068;2023-05-20T11:12:22;17.70;99.90
45096;DHT22;30858;51.108;8.068;2023-05-20T11:14:49;17.40;99.90
45096;DHT22;30858;51.108;8.068;2023-05-20T11:17:15;17.30;99.90
45096;DHT22;30858;51.108;8.068;2023-05-20T11:19:41;17.60;99.90
45096;DHT22;30858;51.108;8.068;2023-05-20T11:22:07;17.80;99.90
45096;DHT22;30858;51.108;8.068;2023-05-20T11:24:33;17.70;99.90
45096;DHT22;30858;51.108;8.068;2023-05-20T11:27:01;17.10;99.90
45096;DHT22;30858;51.108;8.068;2023-05-20T11:29:27;17.30;99.90
45096;DHT22;30858;51.108;8.068;2023-05-20T11:31:54;17.50;99.90
45096;DHT22;30858;51.108;8.068;2023-05-20T11:34:22;17.70;99.90
45096;DHT22;30858;51.108;8.068;2023-05-20T11:36:56;18.00;99.90
45096;DHT22;30858;51.108;8.068;2023-05-20T11:39:21;17.90;99.90
45096;DHT22;30858;51.108;8.068;2023-05-20T11:41:47;17.90;99.90
45096;DHT22;30858;51.108;8.068;2023-05-20T11:44:12;18.00;99.90
45096;DHT22;30858;51.108;8.068;2023-05-20T11:46:42;18.10;99.90
45096;DHT22;30858;51.108;8.068;2023-05-20T11:49:08;18.20;99.90
45096;DHT22;30858;51.108;8.068;2023-05-20T11:51:35;18.20;99.90
45096;DHT22;30858;51.108;8.068;2023-05-20T11:54:02;18.20;99.90
45096;DHT22;30858;51.108;8.068;2023-05-20T11:56:29;18.40;99.90
45096;DHT22;30858;51.108;8.068;2023-05-20T11:58:59;17.80;99.90
45096;DHT22;30858;51.108;8.068;2023-05-20T12:01:25;17.70;99.90
45096;DHT22;30858;51.108;8.068;2023-05-20T12:03:52;17.80;99.90
45096;DHT22;30858;51.108;8.068;2023-05-20T12:06:18;18.20;99.90
45096;DHT22;30858;51.108;8.068;2023-05-20T12:08:44;18.10;99.90
45096;DHT22;30858;51.108;8.068;2023-05-20T12:11:10;18.30;99.90
45096;DHT22;30858;51.108;8.068;2023-05-20T12:13:36;18.50;99.90
45096;DHT22;30858;51.108;8.068;2023-05-20T12:16:02;18.00;99.90
45096;DHT22;30858;51.108;8.068;2023-05-20T12:18:30;18.10;99.90
45096;DHT22;30858;51.108;8.068;2023-05-20T12:20:56;18.30;99.90
45096;DHT22;30858;51.108;8.068;2023-05-20T12:23:21;18.50;99.90
45096;DHT22;30858;51.108;8.068;2023-05-20T12:25:47;18.20;99.90
45096;DHT22;30858;51.108;8.068;2023-05-20T12:28:14;18.00;99.90
45096;DHT22;30858;51.108;8.068;2023-05-20T12:30:40;17.50;99.90
45096;DHT22;30858;51.108;8.068;2023-05-20T12:33:06;17.60;99.90
45096;DHT22;30858;51.108;8.068;2023-05-20T12:35:50;17.70;99.90
45096;DHT22;30858;51.108;8.068;2023-05-20T12:38:15;17.50;99.90
45096;DHT22;30858;51.108;8.068;2023-05-20T12:40:41;17.20;99.90
45096;DHT22;30858;51.108;8.068;2023-05-20T12:43:06;17.20;99.90
45096;DHT22;30858;51.108;8.068;2023-05-20T12:45:32;17.30;99.90
45096;DHT22;30858;51.108;8.068;2023-05-20T12:47:58;17.50;99.90
45096;DHT22;30858;51.108;8.068;2023-05-20T12:50:24;17.60;99.90
45096;DHT22;30858;51.108;8.068;2023-05-20T12:52:50;17.50;99.90
45096;DHT22;30858;51.108;8.068;2023-05-20T12:55:15;17.20;99.90
45096;DHT22;30858;51.108;8.068;2023-05-20T12:57:42;17.20;99.90
45096;DHT22;30858;51.108;8.068;2023-05-20T13:00:08;17.00;99.90
45096;DHT22;30858;51.108;8.068;2023-05-20T13:02:38;17.30;99.90
45096;DHT22;30858;51.108;8.068;2023-05-20T13:05:04;17.20;99.90
45096;DHT22;30858;51.108;8.068;2023-05-20T13:07:31;17.30;99.90
45096;DHT22;30858;51.108;8.068;2023-05-20T13:09:57;17.20;99.90
45096;DHT22;30858;51.108;8.068;2023-05-20T13:12:23;17.10;99.90
45096;DHT22;30858;51.108;8.068;2023-05-20T13:14:48;17.20;99.90
45096;DHT22;30858;51.108;8.068;2023-05-20T13:17:14;17.40;99.90
45096;DHT22;30858;51.108;8.068;2023-05-20T13:19:40;17.50;99.90
45096;DHT22;30858;51.108;8.068;2023-05-20T13:22:06;17.20;99.90
45096;DHT22;30858;51.108;8.068;2023-05-20T13:24:33;17.00;99.90
45096;DHT22;30858;51.108;8.068;2023-05-20T13:26:58;16.70;99.90
45096;DHT22;30858;51.108;8.068;2023-05-20T13:29:28;16.80;99.90
45096;DHT22;30858;51.108;8.068;2023-05-20T13:31:53;17.00;99.90
45096;DHT22;30858;51.108;8.068;2023-05-20T13:34:19;17.20;99.90
45096;DHT22;30858;51.108;8.068;2023-05-20T13:36:45;17.10;99.90
45096;DHT22;30858;51.108;8.068;2023-05-20T13:39:12;17.30;99.90
45096;DHT22;30858;51.108;8.068;2023-05-20T13:41:37;17.40;99.90
45096;DHT22;30858;51.108;8.068;2023-05-20T13:44:03;17.60;99.90
45096;DHT22;30858;51.108;8.068;2023-05-20T13:46:29;17.60;99.90
45096;DHT22;30858;51.108;8.068;2023-05-20T13:48:54;17.20;99.90
45096;DHT22;30858;51.108;8.068;2023-05-20T13:51:20;17.00;99.90
45096;DHT22;30858;51.108;8.068;2023-05-20T13:53:46;17.30;99.90
45096;DHT22;30858;51.108;8.068;2023-05-20T13:56:11;17.30;99.90
45096;DHT22;30858;51.108;8.068;2023-05-20T13:58:37;17.40;99.90
45096;DHT22;30858;51.108;8.068;2023-05-20T14:01:03;17.60;99.90
45096;DHT22;30858;51.108;8.068;2023-05-20T14:03:30;17.80;99.90
45096;DHT22;30858;51.108;8.068;2023-05-20T14:05:57;17.90;99.90
45096;DHT22;30858;51.108;8.068;2023-05-20T14:08:23;18.20;99.90
45096;DHT22;30858;51.108;8.068;2023-05-20T14:10:48;18.20;99.90
45096;DHT22;30858;51.108;8.068;2023-05-20T14:13:19;18.00;99.90
45096;DHT22;30858;51.108;8.068;2023-05-20T14:15:45;17.90;99.90
45096;DHT22;30858;51.108;8.068;2023-05-20T14:18:10;18.10;99.90
45096;DHT22;30858;51.108;8.068;2023-05-20T14:20:36;18.30;99.90
45096;DHT22;30858;51.108;8.068;2023-05-20T14:23:01;18.00;99.90
45096;DHT22;30858;51.108;8.068;2023-05-20T14:25:27;18.00;99.90
45096;DHT22;30858;51.108;8.068;2023-05-20T14:27:53;17.50;99.90
45096;DHT22;30858;51.108;8.068;2023-05-20T14:30:18;17.60;99.90
45096;DHT22;30858;51.108;8.068;2023-05-20T14:32:44;17.40;99.90
45096;DHT22;30858;51.108;8.068;2023-05-20T14:35:09;17.50;99.90
45096;DHT22;30858;51.108;8.068;2023-05-20T14:37:35;17.20;99.90
45096;DHT22;30858;51.108;8.068;2023-05-20T14:40:02;17.50;99.90
45096;DHT22;30858;51.108;8.068;2023-05-20T14:42:28;17.70;99.90
45096;DHT22;30858;51.108;8.068;2023-05-20T14:44:54;17.50;99.90
45096;DHT22;30858;51.108;8.068;2023-05-20T14:47:19;17.50;99.90
45096;DHT22;30858;51.108;8.068;2023-05-20T14:49:46;17.30;99.90
45096;DHT22;30858;51.108;8.068;2023-05-20T14:52:14;17.30;99.90
45096;DHT22;30858;51.108;8.068;2023-05-20T14:54:40;17.00;99.90
45096;DHT22;30858;51.108;8.068;2023-05-20T14:57:05;17.00;99.90
45096;DHT22;30858;51.108;8.068;2023-05-20T14:59:31;17.00;99.90
45096;DHT22;30858;51.108;8.068;2023-05-20T15:01:57;17.30;99.90
45096;DHT22;30858;51.108;8.068;2023-05-20T15:04:23;17.40;99.90
45096;DHT22;30858;51.108;8.068;2023-05-20T15:06:48;17.50;99.90
45096;DHT22;30858;51.108;8.068;2023-05-20T15:09:14;17.50;99.90
45096;DHT22;30858;51.108;8.068;2023-05-20T15:11:39;17.40;99.90
45096;DHT22;30858;51.108;8.068;2023-05-20T15:14:05;17.30;99.90
45096;DHT22;30858;51.108;8.068;2023-05-20T15:16:30;17.10;99.90
45096;DHT22;30858;51.108;8.068;2023-05-20T15:18:56;17.10;99.90
45096;DHT22;30858;51.108;8.068;2023-05-20T15:21:21;17.30;99.90
45096;DHT22;30858;51.108;8.068;2023-05-20T15:23:47;17.40;99.90
45096;DHT22;30858;51.108;8.068;2023-05-20T15:26:13;17.50;99.90
45096;DHT22;30858;51.108;8.068;2023-05-20T15:28:39;17.50;99.90
45096;DHT22;30858;51.108;8.068;2023-05-20T15:31:05;17.60;99.90
45096;DHT22;30858;51.108;8.068;2023-05-20T15:33:31;17.30;99.90
45096;DHT22;30858;51.108;8.068;2023-05-20T15:35:57;17.30;99.90
45096;DHT22;30858;51.108;8.068;2023-05-20T15:38:22;17.40;99.90
45096;DHT22;30858;51.108;8.068;2023-05-20T15:40:48;17.20;99.90
45096;DHT22;30858;51.108;8.068;2023-05-20T15:43:17;17.30;99.90
45096;DHT22;30858;51.108;8.068;2023-05-20T15:45:44;17.40;99.90